sensor_id;sensor_type;location;lat;lon;timestamp;P1;durP1;ratioP1;P2;durP2;ratioP2
31782;SDS011;18351;47.560;9.708;2023-01-30T00:00:30;59.15;;;29.50;;
31782;SDS011;18351;47.560;9.708;2023-01-30T00:02:56;62.53;;;31.90;;
31782;SDS011;18351;47.560;9.708;2023-01-30T00:05:21;58.42;;;31.80;;
31782;SDS011;18351;47.560;9.708;2023-01-30T00:07:47;62.80;;;31.40;;
31782;SDS011;18351;47.560;9.708;2023-01-30T00:10:13;63.13;;;31.77;;
31782;SDS011;18351;47.560;9.708;2023-01-30T00:12:39;63.83;;;33.15;;
31782;SDS011;18351;47.560;9.708;2023-01-30T00:15:05;66.72;;;32.85;;
31782;SDS011;18351;47.560;9.708;2023-01-30T00:17:31;64.72;;;31.45;;
31782;SDS011;18351;47.560;9.708;2023-01-30T00:19:56;58.97;;;31.02;;
31782;SDS011;18351;47.560;9.708;2023-01-30T00:22:22;67.85;;;32.53;;
31782;SDS011;18351;47.560;9.708;2023-01-30T00:24:47;62.22;;;32.10;;
31782;SDS011;18351;47.560;9.708;2023-01-30T00:27:13;67.03;;;32.97;;
31782;SDS011;18351;47.560;9.708;2023-01-30T00:29:39;64.55;;;32.10;;
31782;SDS011;18351;47.560;9.708;2023-01-30T00:32:04;65.10;;;32.20;;
31782;SDS011;18351;47.560;9.708;2023-01-30T00:34:30;59.95;;;30.38;;
31782;SDS011;18351;47.560;9.708;2023-01-30T00:36:55;67.03;;;33.05;;
31782;SDS011;18351;47.560;9.708;2023-01-30T00:39:21;65.80;;;31.88;;
31782;SDS011;18351;47.560;9.708;2023-01-30T00:41:46;67.28;;;32.50;;
31782;SDS011;18351;47.560;9.708;2023-01-30T00:44:31;64.97;;;32.45;;
31782;SDS011;18351;47.560;9.708;2023-01-30T00:47:15;69.07;;;32.88;;
31782;SDS011;18351;47.560;9.708;2023-01-30T00:49:40;75.43;;;34.25;;
31782;SDS011;18351;47.560;9.708;2023-01-30T00:52:06;67.55;;;33.67;;
31782;SDS011;18351;47.560;9.708;2023-01-30T00:54:32;66.93;;;31.75;;
31782;SDS011;18351;47.560;9.708;2023-01-30T00:56:58;68.32;;;32.65;;
31782;SDS011;18351;47.560;9.708;2023-01-30T00:59:23;65.18;;;31.88;;
31782;SDS011;18351;47.560;9.708;2023-01-30T01:01:49;68.47;;;32.95;;
31782;SDS011;18351;47.560;9.708;2023-01-30T01:04:15;71.28;;;32.67;;
31782;SDS011;18351;47.560;9.708;2023-01-30T01:06:41;71.03;;;32.97;;
31782;SDS011;18351;47.560;9.708;2023-01-30T01:09:06;70.40;;;33.33;;
31782;SDS011;18351;47.560;9.708;2023-01-30T01:11:32;62.47;;;31.77;;
31782;SDS011;18351;47.560;9.708;2023-01-30T01:13:59;66.53;;;33.92;;
31782;SDS011;18351;47.560;9.708;2023-01-30T01:16:26;66.30;;;31.70;;
31782;SDS011;18351;47.560;9.708;2023-01-30T01:18:53;63.00;;;32.08;;
31782;SDS011;18351;47.560;9.708;2023-01-30T01:21:19;60.92;;;30.83;;
31782;SDS011;18351;47.560;9.708;2023-01-30T01:23:52;66.15;;;32.22;;
31782;SDS011;18351;47.560;9.708;2023-01-30T01:26:20;58.78;;;29.23;;
31782;SDS011;18351;47.560;9.708;2023-01-30T01:28:45;59.85;;;29.92;;
31782;SDS011;18351;47.560;9.708;2023-01-30T01:31:12;60.85;;;29.65;;
31782;SDS011;18351;47.560;9.708;2023-01-30T01:33:39;63.92;;;31.00;;
31782;SDS011;18351;47.560;9.708;2023-01-30T01:36:05;61.65;;;30.27;;
31782;SDS011;18351;47.560;9.708;2023-01-30T01:38:31;64.30;;;31.58;;
31782;SDS011;18351;47.560;9.708;2023-01-30T01:40:57;63.88;;;30.80;;
31782;SDS011;18351;47.560;9.708;2023-01-30T01:43:26;65.53;;;30.60;;
31782;SDS011;18351;47.560;9.708;2023-01-30T01:45:57;63.35;;;30.67;;
31782;SDS011;18351;47.560;9.708;2023-01-30T01:48:31;63.30;;;31.52;;
31782;SDS011;18351;47.560;9.708;2023-01-30T01:51:01;64.35;;;30.75;;
31782;SDS011;18351;47.560;9.708;2023-01-30T01:53:36;64.47;;;31.05;;
31782;SDS011;18351;47.560;9.708;2023-01-30T01:56:05;68.95;;;31.92;;
31782;SDS011;18351;47.560;9.708;2023-01-30T01:58:36;62.85;;;31.00;;
31782;SDS011;18351;47.560;9.708;2023-01-30T02:01:06;58.08;;;29.13;;
31782;SDS011;18351;47.560;9.708;2023-01-30T02:03:33;59.05;;;29.65;;
31782;SDS011;18351;47.560;9.708;2023-01-30T02:06:02;63.15;;;30.23;;
31782;SDS011;18351;47.560;9.708;2023-01-30T02:08:33;59.63;;;30.60;;
31782;SDS011;18351;47.560;9.708;2023-01-30T02:13:40;59.75;;;30.05;;
31782;SDS011;18351;47.560;9.708;2023-01-30T02:16:06;55.90;;;29.02;;
31782;SDS011;18351;47.560;9.708;2023-01-30T02:18:33;57.00;;;29.45;;
31782;SDS011;18351;47.560;9.708;2023-01-30T02:29:51;62.65;;;30.20;;
31782;SDS011;18351;47.560;9.708;2023-01-30T02:40:48;62.65;;;30.20;;
31782;SDS011;18351;47.560;9.708;2023-01-30T02:46:08;60.65;;;29.90;;
31782;SDS011;18351;47.560;9.708;2023-01-30T02:48:46;61.40;;;30.05;;
31782;SDS011;18351;47.560;9.708;2023-01-30T02:51:44;59.45;;;30.13;;
31782;SDS011;18351;47.560;9.708;2023-01-30T02:54:10;65.10;;;31.83;;
31782;SDS011;18351;47.560;9.708;2023-01-30T02:56:47;64.60;;;30.67;;
31782;SDS011;18351;47.560;9.708;2023-01-30T02:59:14;63.70;;;31.08;;
31782;SDS011;18351;47.560;9.708;2023-01-30T03:12:35;65.40;;;29.75;;
31782;SDS011;18351;47.560;9.708;2023-01-30T03:15:27;60.80;;;29.08;;
31782;SDS011;18351;47.560;9.708;2023-01-30T03:17:59;61.35;;;28.23;;
31782;SDS011;18351;47.560;9.708;2023-01-30T03:20:26;55.35;;;29.00;;
31782;SDS011;18351;47.560;9.708;2023-01-30T03:22:52;61.97;;;29.77;;
31782;SDS011;18351;47.560;9.708;2023-01-30T03:25:20;58.72;;;31.02;;
31782;SDS011;18351;47.560;9.708;2023-01-30T03:27:50;63.90;;;31.33;;
31782;SDS011;18351;47.560;9.708;2023-01-30T03:30:17;66.40;;;32.17;;
31782;SDS011;18351;47.560;9.708;2023-01-30T03:32:43;67.85;;;30.40;;
31782;SDS011;18351;47.560;9.708;2023-01-30T03:35:09;64.53;;;30.98;;
31782;SDS011;18351;47.560;9.708;2023-01-30T03:37:34;62.67;;;29.60;;
31782;SDS011;18351;47.560;9.708;2023-01-30T03:40:00;62.83;;;30.90;;
31782;SDS011;18351;47.560;9.708;2023-01-30T03:42:26;57.67;;;30.15;;
31782;SDS011;18351;47.560;9.708;2023-01-30T03:44:52;58.97;;;28.67;;
31782;SDS011;18351;47.560;9.708;2023-01-30T03:47:18;61.03;;;29.38;;
31782;SDS011;18351;47.560;9.708;2023-01-30T03:49:43;59.67;;;28.77;;
31782;SDS011;18351;47.560;9.708;2023-01-30T03:52:09;60.28;;;29.20;;
31782;SDS011;18351;47.560;9.708;2023-01-30T03:54:34;58.72;;;29.33;;
31782;SDS011;18351;47.560;9.708;2023-01-30T03:57:00;63.95;;;30.70;;
31782;SDS011;18351;47.560;9.708;2023-01-30T03:59:26;58.00;;;28.65;;
31782;SDS011;18351;47.560;9.708;2023-01-30T04:01:51;57.13;;;29.15;;
31782;SDS011;18351;47.560;9.708;2023-01-30T04:04:17;67.65;;;31.58;;
31782;SDS011;18351;47.560;9.708;2023-01-30T04:06:43;62.75;;;29.08;;
31782;SDS011;18351;47.560;9.708;2023-01-30T04:09:08;65.72;;;30.48;;
31782;SDS011;18351;47.560;9.708;2023-01-30T04:11:34;61.30;;;30.75;;
31782;SDS011;18351;47.560;9.708;2023-01-30T04:14:00;62.90;;;31.95;;
31782;SDS011;18351;47.560;9.708;2023-01-30T04:16:25;69.03;;;30.30;;
31782;SDS011;18351;47.560;9.708;2023-01-30T04:18:51;59.60;;;29.58;;
31782;SDS011;18351;47.560;9.708;2023-01-30T04:21:17;59.30;;;28.98;;
31782;SDS011;18351;47.560;9.708;2023-01-30T04:23:43;62.65;;;29.58;;
31782;SDS011;18351;47.560;9.708;2023-01-30T04:26:10;57.35;;;28.38;;
31782;SDS011;18351;47.560;9.708;2023-01-30T04:28:38;65.68;;;27.40;;
31782;SDS011;18351;47.560;9.708;2023-01-30T04:31:04;53.40;;;27.33;;
31782;SDS011;18351;47.560;9.708;2023-01-30T04:33:30;55.70;;;29.08;;
31782;SDS011;18351;47.560;9.708;2023-01-30T04:35:59;53.47;;;26.98;;
31782;SDS011;18351;47.560;9.708;2023-01-30T04:38:26;57.72;;;27.55;;
31782;SDS011;18351;47.560;9.708;2023-01-30T04:40:53;56.10;;;27.08;;
31782;SDS011;18351;47.560;9.708;2023-01-30T04:43:20;57.97;;;27.75;;
31782;SDS011;18351;47.560;9.708;2023-01-30T04:45:47;56.38;;;27.65;;
31782;SDS011;18351;47.560;9.708;2023-01-30T04:48:14;54.28;;;26.65;;
31782;SDS011;18351;47.560;9.708;2023-01-30T04:50:41;56.35;;;28.85;;
31782;SDS011;18351;47.560;9.708;2023-01-30T04:53:08;54.38;;;25.50;;
31782;SDS011;18351;47.560;9.708;2023-01-30T04:55:34;48.10;;;25.95;;
31782;SDS011;18351;47.560;9.708;2023-01-30T04:58:00;50.22;;;25.85;;
31782;SDS011;18351;47.560;9.708;2023-01-30T05:00:26;51.28;;;25.48;;
31782;SDS011;18351;47.560;9.708;2023-01-30T05:02:52;54.38;;;27.20;;
31782;SDS011;18351;47.560;9.708;2023-01-30T05:05:19;54.25;;;27.63;;
31782;SDS011;18351;47.560;9.708;2023-01-30T05:07:46;54.92;;;26.73;;
31782;SDS011;18351;47.560;9.708;2023-01-30T05:10:12;49.35;;;25.75;;
31782;SDS011;18351;47.560;9.708;2023-01-30T05:12:37;53.55;;;26.80;;
31782;SDS011;18351;47.560;9.708;2023-01-30T05:15:03;49.65;;;26.20;;
31782;SDS011;18351;47.560;9.708;2023-01-30T05:17:30;47.47;;;25.65;;
31782;SDS011;18351;47.560;9.708;2023-01-30T05:19:56;50.28;;;23.73;;
31782;SDS011;18351;47.560;9.708;2023-01-30T05:22:22;51.08;;;25.45;;
31782;SDS011;18351;47.560;9.708;2023-01-30T05:24:47;47.30;;;24.42;;
31782;SDS011;18351;47.560;9.708;2023-01-30T05:27:13;48.30;;;24.80;;
31782;SDS011;18351;47.560;9.708;2023-01-30T05:29:38;50.53;;;23.63;;
31782;SDS011;18351;47.560;9.708;2023-01-30T05:32:04;40.20;;;21.17;;
31782;SDS011;18351;47.560;9.708;2023-01-30T05:34:30;45.38;;;23.13;;
31782;SDS011;18351;47.560;9.708;2023-01-30T05:36:55;39.30;;;21.10;;
31782;SDS011;18351;47.560;9.708;2023-01-30T05:39:21;39.30;;;22.70;;
31782;SDS011;18351;47.560;9.708;2023-01-30T05:41:46;39.50;;;21.80;;
31782;SDS011;18351;47.560;9.708;2023-01-30T05:44:12;40.58;;;21.58;;
31782;SDS011;18351;47.560;9.708;2023-01-30T05:46:37;40.47;;;21.67;;
31782;SDS011;18351;47.560;9.708;2023-01-30T05:49:03;42.13;;;22.58;;
31782;SDS011;18351;47.560;9.708;2023-01-30T05:51:28;40.45;;;22.17;;
31782;SDS011;18351;47.560;9.708;2023-01-30T05:53:54;46.00;;;23.40;;
31782;SDS011;18351;47.560;9.708;2023-01-30T05:56:20;45.22;;;22.73;;
31782;SDS011;18351;47.560;9.708;2023-01-30T05:58:50;45.17;;;22.88;;
31782;SDS011;18351;47.560;9.708;2023-01-30T06:01:20;45.80;;;23.27;;
31782;SDS011;18351;47.560;9.708;2023-01-30T06:03:47;47.70;;;22.75;;
31782;SDS011;18351;47.560;9.708;2023-01-30T06:06:13;45.30;;;23.42;;
31782;SDS011;18351;47.560;9.708;2023-01-30T06:08:38;43.30;;;22.42;;
31782;SDS011;18351;47.560;9.708;2023-01-30T06:11:06;48.25;;;24.13;;
31782;SDS011;18351;47.560;9.708;2023-01-30T06:13:34;47.05;;;23.33;;
31782;SDS011;18351;47.560;9.708;2023-01-30T06:16:00;50.47;;;24.58;;
31782;SDS011;18351;47.560;9.708;2023-01-30T06:18:26;46.08;;;23.85;;
31782;SDS011;18351;47.560;9.708;2023-01-30T06:20:52;46.85;;;24.30;;
31782;SDS011;18351;47.560;9.708;2023-01-30T06:23:18;51.53;;;24.95;;
31782;SDS011;18351;47.560;9.708;2023-01-30T06:25:45;44.33;;;23.42;;
31782;SDS011;18351;47.560;9.708;2023-01-30T06:28:12;44.67;;;23.25;;
31782;SDS011;18351;47.560;9.708;2023-01-30T06:30:39;46.30;;;22.30;;
31782;SDS011;18351;47.560;9.708;2023-01-30T06:33:05;45.28;;;22.83;;
31782;SDS011;18351;47.560;9.708;2023-01-30T06:35:31;41.40;;;21.02;;
31782;SDS011;18351;47.560;9.708;2023-01-30T06:37:57;44.65;;;22.90;;
31782;SDS011;18351;47.560;9.708;2023-01-30T06:40:22;43.45;;;22.60;;
31782;SDS011;18351;47.560;9.708;2023-01-30T06:42:48;46.35;;;23.42;;
31782;SDS011;18351;47.560;9.708;2023-01-30T06:45:14;44.75;;;23.20;;
31782;SDS011;18351;47.560;9.708;2023-01-30T06:47:48;42.92;;;23.08;;
31782;SDS011;18351;47.560;9.708;2023-01-30T06:50:16;42.05;;;22.17;;
31782;SDS011;18351;47.560;9.708;2023-01-30T06:52:46;48.72;;;23.70;;
31782;SDS011;18351;47.560;9.708;2023-01-30T06:55:14;47.22;;;23.63;;
31782;SDS011;18351;47.560;9.708;2023-01-30T06:57:40;49.55;;;24.88;;
31782;SDS011;18351;47.560;9.708;2023-01-30T07:00:08;48.97;;;24.50;;
31782;SDS011;18351;47.560;9.708;2023-01-30T07:02:36;43.60;;;23.80;;
31782;SDS011;18351;47.560;9.708;2023-01-30T07:05:03;49.38;;;25.52;;
31782;SDS011;18351;47.560;9.708;2023-01-30T07:07:30;48.97;;;23.73;;
31782;SDS011;18351;47.560;9.708;2023-01-30T07:09:56;49.40;;;24.70;;
31782;SDS011;18351;47.560;9.708;2023-01-30T07:12:23;53.55;;;26.27;;
31782;SDS011;18351;47.560;9.708;2023-01-30T07:14:49;47.42;;;24.98;;
31782;SDS011;18351;47.560;9.708;2023-01-30T07:17:16;51.92;;;26.52;;
31782;SDS011;18351;47.560;9.708;2023-01-30T07:19:42;54.47;;;27.05;;
31782;SDS011;18351;47.560;9.708;2023-01-30T07:22:08;52.90;;;25.95;;
31782;SDS011;18351;47.560;9.708;2023-01-30T07:24:34;55.15;;;26.38;;
31782;SDS011;18351;47.560;9.708;2023-01-30T07:26:59;52.22;;;26.15;;
31782;SDS011;18351;47.560;9.708;2023-01-30T07:29:25;45.13;;;23.42;;
31782;SDS011;18351;47.560;9.708;2023-01-30T07:31:50;48.53;;;25.23;;
31782;SDS011;18351;47.560;9.708;2023-01-30T07:34:16;49.10;;;26.20;;
31782;SDS011;18351;47.560;9.708;2023-01-30T07:36:42;56.80;;;28.60;;
31782;SDS011;18351;47.560;9.708;2023-01-30T07:39:07;53.60;;;26.58;;
31782;SDS011;18351;47.560;9.708;2023-01-30T07:41:33;50.92;;;24.23;;
31782;SDS011;18351;47.560;9.708;2023-01-30T07:43:59;51.40;;;26.58;;
31782;SDS011;18351;47.560;9.708;2023-01-30T07:46:25;57.17;;;27.85;;
31782;SDS011;18351;47.560;9.708;2023-01-30T07:48:58;46.80;;;22.73;;
31782;SDS011;18351;47.560;9.708;2023-01-30T07:51:27;55.10;;;27.35;;
31782;SDS011;18351;47.560;9.708;2023-01-30T07:53:53;51.97;;;27.00;;
31782;SDS011;18351;47.560;9.708;2023-01-30T07:56:18;61.13;;;28.73;;
31782;SDS011;18351;47.560;9.708;2023-01-30T07:58:47;54.58;;;27.55;;
31782;SDS011;18351;47.560;9.708;2023-01-30T08:01:13;61.45;;;30.75;;
31782;SDS011;18351;47.560;9.708;2023-01-30T08:03:39;59.33;;;30.75;;
31782;SDS011;18351;47.560;9.708;2023-01-30T08:06:04;63.75;;;31.95;;
31782;SDS011;18351;47.560;9.708;2023-01-30T08:08:30;55.40;;;28.95;;
31782;SDS011;18351;47.560;9.708;2023-01-30T08:10:56;59.53;;;31.40;;
31782;SDS011;18351;47.560;9.708;2023-01-30T08:13:21;62.55;;;30.63;;
31782;SDS011;18351;47.560;9.708;2023-01-30T08:15:48;57.92;;;29.55;;
31782;SDS011;18351;47.560;9.708;2023-01-30T08:18:14;54.35;;;28.17;;
31782;SDS011;18351;47.560;9.708;2023-01-30T08:20:40;54.55;;;28.40;;
31782;SDS011;18351;47.560;9.708;2023-01-30T08:23:06;57.22;;;28.42;;
31782;SDS011;18351;47.560;9.708;2023-01-30T08:25:32;60.47;;;29.63;;
31782;SDS011;18351;47.560;9.708;2023-01-30T08:27:59;58.58;;;29.05;;
31782;SDS011;18351;47.560;9.708;2023-01-30T08:30:25;57.20;;;29.55;;
31782;SDS011;18351;47.560;9.708;2023-01-30T08:32:51;53.33;;;28.10;;
31782;SDS011;18351;47.560;9.708;2023-01-30T08:35:17;60.25;;;30.27;;
31782;SDS011;18351;47.560;9.708;2023-01-30T08:37:43;53.28;;;29.33;;
31782;SDS011;18351;47.560;9.708;2023-01-30T08:40:09;61.50;;;29.75;;
31782;SDS011;18351;47.560;9.708;2023-01-30T08:42:35;55.53;;;28.23;;
31782;SDS011;18351;47.560;9.708;2023-01-30T08:45:00;63.05;;;32.92;;
31782;SDS011;18351;47.560;9.708;2023-01-30T08:47:26;60.53;;;30.67;;
31782;SDS011;18351;47.560;9.708;2023-01-30T08:49:52;70.10;;;36.15;;
31782;SDS011;18351;47.560;9.708;2023-01-30T08:52:18;61.08;;;31.75;;
31782;SDS011;18351;47.560;9.708;2023-01-30T08:54:44;58.13;;;31.40;;
31782;SDS011;18351;47.560;9.708;2023-01-30T08:57:09;62.17;;;31.67;;
31782;SDS011;18351;47.560;9.708;2023-01-30T08:59:35;54.92;;;28.13;;
31782;SDS011;18351;47.560;9.708;2023-01-30T09:02:01;57.28;;;29.45;;
31782;SDS011;18351;47.560;9.708;2023-01-30T09:04:29;51.55;;;27.52;;
31782;SDS011;18351;47.560;9.708;2023-01-30T09:06:55;54.13;;;28.20;;
31782;SDS011;18351;47.560;9.708;2023-01-30T09:09:21;55.80;;;29.58;;
31782;SDS011;18351;47.560;9.708;2023-01-30T09:11:46;54.08;;;29.30;;
31782;SDS011;18351;47.560;9.708;2023-01-30T09:14:13;50.03;;;27.48;;
31782;SDS011;18351;47.560;9.708;2023-01-30T09:16:43;54.63;;;29.48;;
31782;SDS011;18351;47.560;9.708;2023-01-30T09:19:12;55.67;;;28.83;;
31782;SDS011;18351;47.560;9.708;2023-01-30T09:21:38;56.05;;;29.85;;
31782;SDS011;18351;47.560;9.708;2023-01-30T09:24:03;51.72;;;28.40;;
31782;SDS011;18351;47.560;9.708;2023-01-30T09:26:29;50.92;;;29.13;;
31782;SDS011;18351;47.560;9.708;2023-01-30T09:28:55;56.45;;;29.15;;
31782;SDS011;18351;47.560;9.708;2023-01-30T09:31:21;55.20;;;29.25;;
31782;SDS011;18351;47.560;9.708;2023-01-30T09:33:46;49.15;;;26.80;;
31782;SDS011;18351;47.560;9.708;2023-01-30T09:36:12;48.70;;;26.70;;
31782;SDS011;18351;47.560;9.708;2023-01-30T09:38:38;51.75;;;28.42;;
31782;SDS011;18351;47.560;9.708;2023-01-30T09:41:25;49.97;;;27.48;;
31782;SDS011;18351;47.560;9.708;2023-01-30T09:55:10;54.97;;;28.33;;
31782;SDS011;18351;47.560;9.708;2023-01-30T09:57:42;55.13;;;28.77;;
31782;SDS011;18351;47.560;9.708;2023-01-30T10:00:14;48.83;;;27.23;;
31782;SDS011;18351;47.560;9.708;2023-01-30T10:05:29;55.50;;;29.73;;
31782;SDS011;18351;47.560;9.708;2023-01-30T10:10:54;54.85;;;29.15;;
31782;SDS011;18351;47.560;9.708;2023-01-30T10:16:00;54.50;;;28.63;;
31782;SDS011;18351;47.560;9.708;2023-01-30T10:18:52;59.53;;;29.65;;
31782;SDS011;18351;47.560;9.708;2023-01-30T10:21:43;52.83;;;27.75;;
31782;SDS011;18351;47.560;9.708;2023-01-30T10:26:55;56.97;;;27.55;;
31782;SDS011;18351;47.560;9.708;2023-01-30T10:32:10;51.97;;;28.50;;
31782;SDS011;18351;47.560;9.708;2023-01-30T10:34:42;50.95;;;27.85;;
31782;SDS011;18351;47.560;9.708;2023-01-30T10:54:04;50.40;;;27.30;;
31782;SDS011;18351;47.560;9.708;2023-01-30T10:57:01;53.45;;;30.00;;
31782;SDS011;18351;47.560;9.708;2023-01-30T11:05:44;51.20;;;28.52;;
31782;SDS011;18351;47.560;9.708;2023-01-30T11:08:14;47.83;;;26.67;;
31782;SDS011;18351;47.560;9.708;2023-01-30T11:10:50;51.58;;;27.27;;
31782;SDS011;18351;47.560;9.708;2023-01-30T11:13:20;47.08;;;26.75;;
31782;SDS011;18351;47.560;9.708;2023-01-30T11:18:18;49.95;;;28.13;;
31782;SDS011;18351;47.560;9.708;2023-01-30T11:20:45;46.42;;;25.95;;
31782;SDS011;18351;47.560;9.708;2023-01-30T11:23:34;50.50;;;27.83;;
31782;SDS011;18351;47.560;9.708;2023-01-30T11:26:04;48.95;;;26.33;;
31782;SDS011;18351;47.560;9.708;2023-01-30T11:28:34;52.90;;;28.50;;
31782;SDS011;18351;47.560;9.708;2023-01-30T11:31:04;50.85;;;27.75;;
31782;SDS011;18351;47.560;9.708;2023-01-30T11:33:39;52.25;;;28.35;;
31782;SDS011;18351;47.560;9.708;2023-01-30T11:36:21;49.78;;;27.17;;
31782;SDS011;18351;47.560;9.708;2023-01-30T11:39:17;53.55;;;28.63;;
31782;SDS011;18351;47.560;9.708;2023-01-30T11:41:44;52.22;;;27.70;;
31782;SDS011;18351;47.560;9.708;2023-01-30T11:44:26;49.35;;;26.65;;
31782;SDS011;18351;47.560;9.708;2023-01-30T11:47:03;50.45;;;27.73;;
31782;SDS011;18351;47.560;9.708;2023-01-30T11:49:40;51.22;;;27.75;;
31782;SDS011;18351;47.560;9.708;2023-01-30T11:52:10;54.22;;;27.95;;
31782;SDS011;18351;47.560;9.708;2023-01-30T11:54:37;54.28;;;28.48;;
31782;SDS011;18351;47.560;9.708;2023-01-30T11:57:12;42.10;;;22.33;;
31782;SDS011;18351;47.560;9.708;2023-01-30T11:59:46;37.10;;;21.17;;
31782;SDS011;18351;47.560;9.708;2023-01-30T12:02:25;38.00;;;20.33;;
31782;SDS011;18351;47.560;9.708;2023-01-30T12:05:00;37.80;;;20.67;;
31782;SDS011;18351;47.560;9.708;2023-01-30T12:07:29;42.65;;;22.15;;
31782;SDS011;18351;47.560;9.708;2023-01-30T12:09:57;36.30;;;21.10;;
31782;SDS011;18351;47.560;9.708;2023-01-30T12:12:27;39.50;;;22.77;;
31782;SDS011;18351;47.560;9.708;2023-01-30T12:18:04;35.78;;;20.65;;
31782;SDS011;18351;47.560;9.708;2023-01-30T12:28:42;37.28;;;20.50;;
31782;SDS011;18351;47.560;9.708;2023-01-30T12:31:35;40.90;;;20.73;;
31782;SDS011;18351;47.560;9.708;2023-01-30T12:34:09;36.28;;;20.88;;
31782;SDS011;18351;47.560;9.708;2023-01-30T12:44:44;37.50;;;20.25;;
31782;SDS011;18351;47.560;9.708;2023-01-30T12:47:33;32.85;;;19.15;;
31782;SDS011;18351;47.560;9.708;2023-01-30T12:55:53;27.42;;;16.90;;
31782;SDS011;18351;47.560;9.708;2023-01-30T13:01:24;30.95;;;17.23;;
31782;SDS011;18351;47.560;9.708;2023-01-30T13:04:05;25.42;;;16.30;;
31782;SDS011;18351;47.560;9.708;2023-01-30T13:09:51;31.67;;;18.40;;
31782;SDS011;18351;47.560;9.708;2023-01-30T13:15:40;25.92;;;14.65;;
31782;SDS011;18351;47.560;9.708;2023-01-30T13:18:32;24.55;;;13.30;;
31782;SDS011;18351;47.560;9.708;2023-01-30T13:21:07;20.50;;;11.13;;
31782;SDS011;18351;47.560;9.708;2023-01-30T13:23:52;17.80;;;10.77;;
31782;SDS011;18351;47.560;9.708;2023-01-30T13:26:32;21.90;;;10.98;;
31782;SDS011;18351;47.560;9.708;2023-01-30T13:29:17;21.98;;;12.13;;
31782;SDS011;18351;47.560;9.708;2023-01-30T13:31:57;9.93;;;5.72;;
31782;SDS011;18351;47.560;9.708;2023-01-30T13:34:30;8.13;;;5.50;;
31782;SDS011;18351;47.560;9.708;2023-01-30T13:37:01;7.68;;;5.28;;
31782;SDS011;18351;47.560;9.708;2023-01-30T13:42:36;9.63;;;5.45;;
31782;SDS011;18351;47.560;9.708;2023-01-30T13:45:14;12.40;;;5.63;;
31782;SDS011;18351;47.560;9.708;2023-01-30T13:51:10;9.10;;;5.65;;
31782;SDS011;18351;47.560;9.708;2023-01-30T13:53:49;9.77;;;6.15;;
31782;SDS011;18351;47.560;9.708;2023-01-30T13:59:15;9.38;;;5.03;;
31782;SDS011;18351;47.560;9.708;2023-01-30T14:07:07;7.57;;;4.68;;
31782;SDS011;18351;47.560;9.708;2023-01-30T14:09:38;7.47;;;5.07;;
31782;SDS011;18351;47.560;9.708;2023-01-30T14:12:13;6.55;;;4.68;;
31782;SDS011;18351;47.560;9.708;2023-01-30T14:15:50;7.78;;;4.47;;
31782;SDS011;18351;47.560;9.708;2023-01-30T14:20:43;5.40;;;4.20;;
31782;SDS011;18351;47.560;9.708;2023-01-30T14:25:54;5.68;;;3.85;;
31782;SDS011;18351;47.560;9.708;2023-01-30T14:30:48;10.60;;;6.13;;
31782;SDS011;18351;47.560;9.708;2023-01-30T14:38:27;7.60;;;4.85;;
31782;SDS011;18351;47.560;9.708;2023-01-30T14:46:04;6.93;;;5.10;;
31782;SDS011;18351;47.560;9.708;2023-01-30T14:59:30;6.07;;;4.05;;
31782;SDS011;18351;47.560;9.708;2023-01-30T15:02:06;16.33;;;9.95;;
31782;SDS011;18351;47.560;9.708;2023-01-30T15:07:36;9.30;;;5.38;;
31782;SDS011;18351;47.560;9.708;2023-01-30T15:13:06;7.75;;;5.07;;
31782;SDS011;18351;47.560;9.708;2023-01-30T15:18:37;6.88;;;4.75;;
31782;SDS011;18351;47.560;9.708;2023-01-30T15:29:43;11.55;;;7.88;;
31782;SDS011;18351;47.560;9.708;2023-01-30T15:32:25;11.82;;;7.10;;
31782;SDS011;18351;47.560;9.708;2023-01-30T15:42:43;12.40;;;7.60;;
31782;SDS011;18351;47.560;9.708;2023-01-30T15:51:07;15.98;;;9.25;;
31782;SDS011;18351;47.560;9.708;2023-01-30T15:53:39;14.43;;;9.48;;
31782;SDS011;18351;47.560;9.708;2023-01-30T15:56:08;15.27;;;9.90;;
31782;SDS011;18351;47.560;9.708;2023-01-30T15:58:41;16.25;;;9.23;;
31782;SDS011;18351;47.560;9.708;2023-01-30T16:01:08;16.58;;;10.20;;
31782;SDS011;18351;47.560;9.708;2023-01-30T16:03:39;22.90;;;12.75;;
31782;SDS011;18351;47.560;9.708;2023-01-30T16:06:18;20.95;;;10.73;;
31782;SDS011;18351;47.560;9.708;2023-01-30T16:09:03;16.63;;;10.13;;
31782;SDS011;18351;47.560;9.708;2023-01-30T16:11:36;19.60;;;11.18;;
31782;SDS011;18351;47.560;9.708;2023-01-30T16:14:03;19.48;;;10.85;;
31782;SDS011;18351;47.560;9.708;2023-01-30T16:16:29;20.83;;;12.60;;
31782;SDS011;18351;47.560;9.708;2023-01-30T16:18:57;27.02;;;15.80;;
31782;SDS011;18351;47.560;9.708;2023-01-30T16:21:27;24.73;;;12.68;;
31782;SDS011;18351;47.560;9.708;2023-01-30T16:27:04;22.15;;;15.18;;
31782;SDS011;18351;47.560;9.708;2023-01-30T16:29:31;22.42;;;13.32;;
31782;SDS011;18351;47.560;9.708;2023-01-30T16:32:10;21.70;;;13.27;;
31782;SDS011;18351;47.560;9.708;2023-01-30T16:34:38;97.85;;;57.50;;
31782;SDS011;18351;47.560;9.708;2023-01-30T16:37:05;25.08;;;15.85;;
31782;SDS011;18351;47.560;9.708;2023-01-30T16:39:32;25.73;;;14.98;;
31782;SDS011;18351;47.560;9.708;2023-01-30T16:42:00;29.38;;;14.80;;
31782;SDS011;18351;47.560;9.708;2023-01-30T16:44:27;29.30;;;16.55;;
31782;SDS011;18351;47.560;9.708;2023-01-30T16:49:44;41.45;;;24.08;;
31782;SDS011;18351;47.560;9.708;2023-01-30T16:52:22;54.42;;;29.65;;
31782;SDS011;18351;47.560;9.708;2023-01-30T16:54:50;45.05;;;24.48;;
31782;SDS011;18351;47.560;9.708;2023-01-30T16:57:24;45.28;;;26.33;;
31782;SDS011;18351;47.560;9.708;2023-01-30T16:59:55;30.23;;;18.08;;
31782;SDS011;18351;47.560;9.708;2023-01-30T17:02:27;33.38;;;18.13;;
31782;SDS011;18351;47.560;9.708;2023-01-30T17:05:09;31.85;;;18.67;;
31782;SDS011;18351;47.560;9.708;2023-01-30T17:07:50;33.75;;;19.83;;
31782;SDS011;18351;47.560;9.708;2023-01-30T17:12:53;33.25;;;17.25;;
31782;SDS011;18351;47.560;9.708;2023-01-30T17:17:44;35.80;;;21.27;;
31782;SDS011;18351;47.560;9.708;2023-01-30T17:20:11;42.15;;;22.83;;
31782;SDS011;18351;47.560;9.708;2023-01-30T17:22:39;45.95;;;23.38;;
31782;SDS011;18351;47.560;9.708;2023-01-30T17:25:17;35.58;;;20.50;;
31782;SDS011;18351;47.560;9.708;2023-01-30T17:27:59;75.05;;;32.90;;
31782;SDS011;18351;47.560;9.708;2023-01-30T17:30:25;66.65;;;30.15;;
31782;SDS011;18351;47.560;9.708;2023-01-30T17:32:51;93.95;;;37.30;;
31782;SDS011;18351;47.560;9.708;2023-01-30T17:35:16;51.65;;;26.42;;
31782;SDS011;18351;47.560;9.708;2023-01-30T17:37:42;39.58;;;20.80;;
31782;SDS011;18351;47.560;9.708;2023-01-30T17:40:12;52.13;;;27.23;;
31782;SDS011;18351;47.560;9.708;2023-01-30T17:42:49;55.05;;;28.05;;
31782;SDS011;18351;47.560;9.708;2023-01-30T17:45:15;60.38;;;33.65;;
31782;SDS011;18351;47.560;9.708;2023-01-30T17:47:40;65.22;;;35.80;;
31782;SDS011;18351;47.560;9.708;2023-01-30T17:50:10;59.45;;;39.70;;
31782;SDS011;18351;47.560;9.708;2023-01-30T17:52:37;45.72;;;26.95;;
31782;SDS011;18351;47.560;9.708;2023-01-30T17:55:03;42.55;;;24.38;;
31782;SDS011;18351;47.560;9.708;2023-01-30T17:57:29;43.17;;;22.83;;
31782;SDS011;18351;47.560;9.708;2023-01-30T17:59:54;50.80;;;27.27;;